Time;durP1;ratioP1;P1;durP2;ratioP2;P2;SDS_P1;SDS_P2;PMS_P1;PMS_P2;Temp;Humidity;BMP_temperature;BMP_pressure;BME280_temperature;BME280_humidity;BME280_pressure;Samples;Min_cycle;Max_cycle;Signal;HPM_P1;HPM_P2
2021/12/14 00:01:39;;;;;;;5.20;1.67;;;23.10;99.90;;;;;;4994860;28;20054;-64
2021/12/14 00:04:10;;;;;;;3.78;1.20;;;23.00;99.90;;;;;;4994572;28;20133;-64
2021/12/14 00:06:40;;;;;;;10.02;1.92;;;23.10;99.90;;;;;;4993820;28;20554;-64
2021/12/14 00:09:11;;;;;;;4.07;1.23;;;23.10;99.90;;;;;;4994558;28;20023;-64
2021/12/14 00:16:49;;;;;;;10.98;2.83;;;22.60;99.90;;;;;;4994607;28;20117;-63
2021/12/14 00:19:18;;;;;;;4.55;1.50;;;22.80;99.90;;;;;;4994472;28;20029;-62
2021/12/14 00:21:51;;;;;;;4.90;1.67;;;23.30;99.90;;;;;;4994507;28;20042;-62
2021/12/14 00:24:26;;;;;;;7.45;1.58;;;23.30;99.90;;;;;;4994579;28;20034;-63
2021/12/14 00:27:01;;;;;;;5.55;1.30;;;23.30;99.90;;;;;;4994440;28;20037;-63
2021/12/14 00:29:33;;;;;;;6.80;1.65;;;23.30;99.90;;;;;;4994345;28;20022;-64
2021/12/14 00:32:04;;;;;;;8.52;1.52;;;23.50;99.90;;;;;;4994270;28;20030;-62
2021/12/14 00:34:49;;;;;;;6.85;1.23;;;23.60;99.90;;;;;;4994458;28;20026;-63
2021/12/14 00:37:21;;;;;;;5.73;1.30;;;23.60;99.90;;;;;;4994373;28;20030;-62
2021/12/14 00:39:50;;;;;;;6.75;1.80;;;23.90;99.90;;;;;;4993976;28;20551;-64
2021/12/14 00:42:18;;;;;;;7.78;1.88;;;23.90;99.90;;;;;;4994311;28;20057;-63
2021/12/14 00:44:47;;;;;;;10.20;1.63;;;23.50;99.90;;;;;;4994470;28;20026;-65
2021/12/14 00:47:16;;;;;;;3.17;1.00;;;23.40;99.90;;;;;;4994280;28;20026;-64
2021/12/14 00:49:43;;;;;;;8.05;2.05;;;23.50;99.90;;;;;;4994137;28;20383;-63
2021/12/14 00:52:11;;;;;;;3.92;1.75;;;23.70;99.90;;;;;;4994378;28;20026;-64
2021/12/14 00:54:39;;;;;;;9.27;1.88;;;23.60;99.90;;;;;;4994075;28;20051;-63
2021/12/14 00:57:09;;;;;;;2.50;1.15;;;23.40;99.90;;;;;;4993990;28;20117;-64
2021/12/14 00:59:37;;;;;;;10.07;2.35;;;23.40;99.90;;;;;;4993971;28;20498;-62
2021/12/14 01:02:17;;;;;;;5.70;1.40;;;23.70;99.90;;;;;;4993732;28;20104;-63
2021/12/14 01:04:53;;;;;;;5.15;1.30;;;23.70;99.90;;;;;;4994133;28;20023;-62
2021/12/14 01:07:24;;;;;;;10.65;1.67;;;24.10;99.90;;;;;;4994321;28;20468;-65
2021/12/14 01:09:57;;;;;;;7.60;1.92;;;23.90;99.90;;;;;;4993948;28;20096;-62
2021/12/14 01:12:44;;;;;;;10.30;2.08;;;23.30;99.90;;;;;;4994039;28;20105;-62
2021/12/14 01:15:29;;;;;;;14.05;1.58;;;23.30;99.90;;;;;;4994023;28;20168;-63
2021/12/14 01:18:28;;;;;;;4.68;1.58;;;23.20;99.90;;;;;;4997068;28;20383;-62
2021/12/14 01:21:11;;;;;;;6.22;1.85;;;23.50;99.90;;;;;;4997883;28;20046;-63
2021/12/14 01:23:40;;;;;;;6.82;2.58;;;23.60;99.90;;;;;;4997599;28;20026;-62
2021/12/14 01:26:17;;;;;;;6.50;1.88;;;23.70;99.90;;;;;;4997895;28;20027;-65
2021/12/14 01:28:46;;;;;;;5.22;1.63;;;23.70;99.90;;;;;;4997734;28;20072;-63
2021/12/14 01:31:22;;;;;;;6.35;1.83;;;24.00;99.90;;;;;;4997493;28;20033;-61
2021/12/14 01:33:54;;;;;;;4.85;1.88;;;24.20;99.90;;;;;;4997717;28;20038;-61
2021/12/14 01:36:31;;;;;;;9.00;1.70;;;24.60;99.90;;;;;;4997696;28;20057;-61
2021/12/14 01:42:01;;;;;;;11.95;2.42;;;24.50;99.90;;;;;;4996382;28;20130;-62
2021/12/14 01:44:31;;;;;;;5.55;2.00;;;24.30;99.90;;;;;;4997474;28;20114;-61
2021/12/14 01:47:11;;;;;;;9.80;2.30;;;24.40;99.90;;;;;;4997464;28;20501;-63
2021/12/14 01:49:38;;;;;;;10.57;2.47;;;24.70;99.90;;;;;;4997322;28;20030;-63
2021/12/14 01:52:10;;;;;;;6.10;1.73;;;24.60;99.90;;;;;;4997374;28;20019;-61
2021/12/14 01:54:44;;;;;;;6.18;1.63;;;24.90;99.90;;;;;;4997273;28;20109;-62
2021/12/14 01:57:18;;;;;;;10.88;2.78;;;24.90;99.90;;;;;;4997376;28;20026;-61
2021/12/14 01:59:48;;;;;;;8.43;2.10;;;24.90;99.90;;;;;;4997114;28;20117;-63
2021/12/14 02:02:31;;;;;;;9.93;2.25;;;24.80;99.90;;;;;;4996709;28;20506;-62
2021/12/14 02:05:03;;;;;;;7.85;2.40;;;24.70;99.90;;;;;;4996903;28;20037;-61
2021/12/14 02:07:31;;;;;;;5.80;1.80;;;25.00;99.40;;;;;;4996848;28;20023;-63
2021/12/14 02:10:05;;;;;;;6.68;2.10;;;25.30;99.30;;;;;;4996947;28;20034;-63
2021/12/14 02:12:33;;;;;;;6.68;2.00;;;25.20;99.30;;;;;;4996890;28;20120;-63
2021/12/14 02:15:27;;;;;;;7.40;2.08;;;25.10;99.90;;;;;;4996866;28;20026;-62
2021/12/14 02:18:00;;;;;;;8.05;2.42;;;25.00;99.90;;;;;;4996822;28;20145;-63
2021/12/14 02:20:35;;;;;;;6.80;2.17;;;25.20;99.90;;;;;;4996608;28;20034;-62
2021/12/14 02:23:02;;;;;;;11.27;2.58;;;25.50;99.90;;;;;;4996798;28;20120;-62
2021/12/14 02:25:36;;;;;;;8.30;1.90;;;25.60;99.90;;;;;;4996698;28;20038;-61
2021/12/14 02:28:07;;;;;;;7.28;1.98;;;25.70;99.90;;;;;;4996191;28;20026;-62
2021/12/14 02:30:37;;;;;;;8.30;2.25;;;25.70;99.90;;;;;;4996329;28;20074;-62
2021/12/14 02:33:20;;;;;;;6.13;1.83;;;25.70;99.90;;;;;;4996499;28;20030;-62
2021/12/14 02:35:50;;;;;;;6.07;1.70;;;25.70;99.90;;;;;;4996468;28;20037;-61
2021/12/14 02:38:19;;;;;;;8.60;2.28;;;26.00;99.90;;;;;;4996366;28;20026;-62
2021/12/14 02:40:57;;;;;;;6.13;1.90;;;26.00;99.90;;;;;;4996431;28;20483;-63
2021/12/14 02:43:46;;;;;;;8.55;2.85;;;25.20;99.90;;;;;;4996164;28;20034;-63
2021/12/14 02:46:37;;;;;;;11.02;2.28;;;25.00;99.90;;;;;;4996418;28;20030;-62
2021/12/14 02:49:13;;;;;;;12.00;2.40;;;25.10;99.90;;;;;;4996046;28;20026;-62
2021/12/14 02:51:44;;;;;;;9.38;1.77;;;25.30;99.90;;;;;;4996184;28;20026;-63
2021/12/14 02:54:19;;;;;;;10.40;2.05;;;25.60;99.90;;;;;;4996044;28;20065;-63
2021/12/14 02:57:06;;;;;;;6.13;2.25;;;25.70;99.90;;;;;;4996102;28;20495;-62
2021/12/14 02:59:37;;;;;;;7.43;1.42;;;25.30;99.90;;;;;;4996090;28;20048;-62
2021/12/14 03:02:12;;;;;;;9.65;1.88;;;25.00;99.90;;;;;;4995722;28;20046;-62
2021/12/14 03:04:54;;;;;;;8.10;1.88;;;25.00;99.90;;;;;;4996014;28;20084;-63
2021/12/14 03:07:25;;;;;;;8.35;1.80;;;25.20;99.90;;;;;;4995843;28;20045;-61
2021/12/14 03:10:16;;;;;;;6.47;1.55;;;25.50;99.90;;;;;;4995933;28;20101;-63
2021/12/14 03:12:54;;;;;;;3.45;1.38;;;25.70;99.90;;;;;;4995735;28;20105;-63
2021/12/14 03:15:36;;;;;;;8.93;1.73;;;25.70;99.90;;;;;;4995795;28;20436;-61
2021/12/14 03:18:10;;;;;;;4.80;1.52;;;25.60;99.90;;;;;;4995599;28;20030;-63
2021/12/14 03:20:50;;;;;;;3.07;1.10;;;25.00;99.90;;;;;;4995389;28;20554;-63
2021/12/14 03:23:43;;;;;;;10.35;1.52;;;25.10;99.90;;;;;;4995570;28;20030;-62
2021/12/14 03:26:13;;;;;;;4.85;1.25;;;25.30;99.90;;;;;;4995456;28;20444;-62
2021/12/14 03:28:47;;;;;;;3.42;1.48;;;25.30;99.90;;;;;;4995335;28;20026;-61
2021/12/14 03:31:24;;;;;;;5.15;0.95;;;25.30;99.90;;;;;;4995581;28;20041;-62
2021/12/14 03:33:59;;;;;;;8.35;1.67;;;25.40;99.90;;;;;;4995456;28;20030;-61
2021/12/14 03:36:33;;;;;;;3.45;1.17;;;25.50;99.90;;;;;;4995361;28;20472;-63
2021/12/14 03:39:13;;;;;;;3.70;1.17;;;25.70;99.90;;;;;;4995166;28;20092;-63
2021/12/14 03:41:47;;;;;;;5.45;1.42;;;25.50;99.90;;;;;;4995221;28;20309;-61
2021/12/14 03:44:22;;;;;;;4.53;1.52;;;25.20;99.90;;;;;;4995194;28;20033;-61
2021/12/14 03:47:04;;;;;;;4.57;2.03;;;25.20;99.90;;;;;;4995868;28;20112;-62
2021/12/14 03:49:42;;;;;;;5.07;1.02;;;25.70;99.90;;;;;;4995104;28;20030;-63
2021/12/14 03:52:18;;;;;;;6.78;1.27;;;25.80;99.90;;;;;;4994988;28;20471;-61
2021/12/14 03:54:46;;;;;;;2.75;1.02;;;25.60;99.90;;;;;;4995052;28;20057;-63
2021/12/14 03:57:13;;;;;;;5.18;1.13;;;25.50;99.90;;;;;;4994722;28;20034;-62
2021/12/14 03:59:41;;;;;;;4.68;1.20;;;25.10;99.90;;;;;;4994845;28;20034;-64
2021/12/14 04:02:12;;;;;;;7.05;1.20;;;24.70;99.90;;;;;;4994513;28;20046;-62
2021/12/14 04:04:45;;;;;;;6.25;1.33;;;24.50;99.90;;;;;;4994680;28;20026;-62
2021/12/14 04:07:15;;;;;;;3.28;1.10;;;24.50;99.90;;;;;;4994609;28;20026;-63
2021/12/14 04:09:43;;;;;;;3.55;1.20;;;24.30;99.90;;;;;;4994549;28;20164;-62
2021/12/14 04:12:14;;;;;;;3.67;1.38;;;24.00;99.90;;;;;;4994454;28;20022;-61
2021/12/14 04:14:45;;;;;;;6.20;1.48;;;23.90;99.90;;;;;;4994707;28;20034;-63
2021/12/14 04:17:13;;;;;;;5.07;1.15;;;24.10;99.90;;;;;;4994439;28;20022;-62
2021/12/14 04:19:42;;;;;;;3.47;0.90;;;24.10;99.90;;;;;;4994378;28;20117;-62
2021/12/14 04:22:14;;;;;;;4.65;1.33;;;24.20;99.90;;;;;;4994409;28;20030;-61
2021/12/14 04:24:43;;;;;;;8.27;1.48;;;24.40;99.90;;;;;;4994668;28;20025;-61
2021/12/14 04:27:18;;;;;;;5.03;1.02;;;24.50;99.90;;;;;;4994380;28;20033;-61
2021/12/14 04:29:47;;;;;;;3.03;1.00;;;24.70;99.90;;;;;;4994324;28;20108;-62
2021/12/14 04:32:16;;;;;;;95.70;9.23;;;24.50;99.90;;;;;;4994365;28;20053;-62
2021/12/14 04:34:44;;;;;;;6.45;2.45;;;24.50;99.90;;;;;;4994415;28;20022;-61
2021/12/14 04:37:14;;;;;;;196.52;13.35;;;24.80;99.90;;;;;;4994330;28;20029;-62
2021/12/14 04:39:46;;;;;;;7.18;1.25;;;24.70;99.90;;;;;;4994312;28;20039;-63
2021/12/14 04:53:39;;;;;;;5.20;1.42;;;24.90;99.90;;;;;;4994192;28;20069;-63
2021/12/14 04:56:12;;;;;;;2.35;0.93;;;24.90;99.90;;;;;;4994131;28;20384;-63
2021/12/14 04:58:47;;;;;;;4.05;1.20;;;24.60;99.90;;;;;;4993845;28;20030;-63
2021/12/14 05:01:16;;;;;;;6.50;0.88;;;24.70;99.90;;;;;;4993669;28;20091;-62
2021/12/14 05:03:49;;;;;;;3.63;1.20;;;24.80;99.90;;;;;;4994043;28;20042;-62
2021/12/14 05:06:20;;;;;;;3.83;1.10;;;24.90;99.90;;;;;;4994198;28;20035;-61
2021/12/14 05:11:24;;;;;;;7.03;1.30;;;24.40;99.90;;;;;;4994060;28;20022;-62
2021/12/14 05:14:02;;;;;;;6.38;1.30;;;24.70;99.90;;;;;;4993972;28;20371;-63
2021/12/14 05:16:30;;;;;;;2.92;0.77;;;24.80;99.90;;;;;;4993896;28;20026;-63
2021/12/14 05:19:07;;;;;;;3.15;1.05;;;24.80;99.90;;;;;;4993776;28;20050;-62
2021/12/14 05:21:38;;;;;;;3.25;0.80;;;24.40;99.90;;;;;;4994047;28;20038;-62
2021/12/14 05:24:09;;;;;;;3.67;1.10;;;24.20;99.90;;;;;;4993803;28;20073;-63
2021/12/14 05:26:37;;;;;;;3.28;0.95;;;24.00;99.90;;;;;;4993726;28;20022;-61
2021/12/14 05:29:09;;;;;;;4.53;1.02;;;23.90;99.90;;;;;;4993900;28;20594;-62
2021/12/14 05:31:43;;;;;;;2.20;0.65;;;24.10;99.90;;;;;;4993873;28;20062;-62
2021/12/14 05:34:11;;;;;;;2.15;0.80;;;24.40;99.90;;;;;;4993827;28;20476;-63
2021/12/14 05:36:44;;;;;;;3.50;1.10;;;24.60;99.90;;;;;;4993733;28;20427;-63
2021/12/14 05:44:39;;;;;;;;;;;24.30;99.90;;;;;;4994209;28;20022;-62
2021/12/14 05:47:10;;;;;;;7.00;1.45;;;24.40;99.90;;;;;;4993722;28;20358;-62
2021/12/14 05:49:44;;;;;;;6.88;1.10;;;23.80;99.90;;;;;;4994297;28;20527;-62
2021/12/14 05:52:19;;;;;;;8.13;1.10;;;23.70;99.90;;;;;;4993723;28;20034;-62
2021/12/14 05:54:46;;;;;;;4.40;1.42;;;23.50;99.90;;;;;;4993555;28;20030;-63
2021/12/14 05:57:18;;;;;;;5.22;1.08;;;23.50;99.90;;;;;;4993496;28;20034;-62
2021/12/14 05:59:46;;;;;;;9.50;1.33;;;23.40;99.90;;;;;;4993539;28;20034;-63
2021/12/14 06:02:14;;;;;;;5.72;1.95;;;23.60;99.90;;;;;;4993243;28;20085;-62
2021/12/14 06:04:46;;;;;;;6.00;0.95;;;23.70;99.90;;;;;;4994475;28;20022;-62
2021/12/14 06:07:15;;;;;;;3.70;1.77;;;23.60;99.90;;;;;;4996802;28;20149;-63
2021/12/14 06:09:46;;;;;;;6.85;1.20;;;23.60;99.90;;;;;;4996932;28;20037;-62
2021/12/14 06:12:21;;;;;;;4.22;1.23;;;23.50;99.90;;;;;;4997036;28;20031;-63
2021/12/14 06:14:54;;;;;;;5.82;1.33;;;23.40;99.90;;;;;;4996891;28;20084;-62
2021/12/14 06:17:42;;;;;;;6.53;1.38;;;23.50;99.90;;;;;;4996867;28;20109;-62
2021/12/14 06:20:28;;;;;;;4.35;1.15;;;23.60;99.90;;;;;;4996743;28;20070;-62
2021/12/14 06:22:55;;;;;;;3.33;1.00;;;23.60;99.90;;;;;;4997014;28;20479;-62
2021/12/14 06:25:27;;;;;;;4.18;1.17;;;23.40;99.90;;;;;;4996562;28;20030;-63
2021/12/14 06:27:59;;;;;;;5.97;1.77;;;23.60;99.90;;;;;;4996630;28;20023;-61
2021/12/14 06:30:35;;;;;;;4.80;1.20;;;23.90;99.90;;;;;;4996582;28;20030;-63
2021/12/14 06:33:08;;;;;;;5.22;1.75;;;23.90;99.90;;;;;;4996612;28;20030;-62
2021/12/14 06:35:47;;;;;;;7.85;1.67;;;24.00;99.90;;;;;;4996575;28;20038;-62
2021/12/14 06:38:34;;;;;;;4.43;1.17;;;24.30;99.90;;;;;;4996547;28;20093;-63
2021/12/14 06:41:08;;;;;;;6.68;1.40;;;24.80;99.90;;;;;;4996256;28;20038;-62
2021/12/14 06:43:44;;;;;;;3.10;1.40;;;25.10;99.90;;;;;;4996239;28;20031;-63
2021/12/14 06:46:15;;;;;;;3.50;1.45;;;25.20;99.90;;;;;;4996374;28;20120;-64
2021/12/14 06:48:55;;;;;;;9.13;1.67;;;25.40;99.90;;;;;;4996101;28;20433;-63
2021/12/14 06:51:31;;;;;;;4.50;0.95;;;25.40;99.90;;;;;;4996429;28;20061;-63
2021/12/14 06:54:04;;;;;;;7.63;1.55;;;25.10;99.90;;;;;;4996281;28;20085;-62
2021/12/14 06:56:33;;;;;;;7.75;1.25;;;24.80;99.90;;;;;;4996343;28;20030;-64
2021/12/14 06:59:05;;;;;;;9.05;1.90;;;24.60;99.90;;;;;;4996099;28;20026;-64
2021/12/14 07:01:48;;;;;;;5.10;0.90;;;24.50;99.90;;;;;;4995751;28;20083;-63
2021/12/14 07:04:22;;;;;;;6.95;1.70;;;24.20;99.90;;;;;;4996066;28;20038;-64
2021/12/14 07:06:54;;;;;;;5.18;1.13;;;23.90;99.90;;;;;;4996034;28;20077;-64
2021/12/14 07:09:33;;;;;;;4.00;1.10;;;23.50;99.90;;;;;;4996135;28;20019;-63
2021/12/14 07:12:08;;;;;;;4.07;1.20;;;23.10;99.90;;;;;;4995806;28;20065;-63
2021/12/14 07:14:41;;;;;;;3.10;1.00;;;23.00;99.90;;;;;;4995277;28;20023;-62
2021/12/14 07:17:27;;;;;;;4.07;0.90;;;22.90;99.90;;;;;;4995910;28;20026;-63
2021/12/14 07:20:07;;;;;;;4.97;0.95;;;23.00;99.90;;;;;;4995780;28;20121;-63
2021/12/14 07:22:46;;;;;;;6.20;1.55;;;23.00;99.90;;;;;;4995494;28;20462;-64
2021/12/14 07:25:21;;;;;;;4.10;1.48;;;22.90;99.90;;;;;;4995680;28;20028;-62
2021/12/14 07:27:51;;;;;;;6.80;1.00;;;22.60;99.90;;;;;;4995713;28;20030;-63
2021/12/14 07:30:35;;;;;;;4.63;1.50;;;22.70;99.90;;;;;;4995542;28;20033;-63
2021/12/14 07:33:17;;;;;;;3.72;1.08;;;23.00;99.90;;;;;;4995544;28;20109;-63
2021/12/14 07:35:50;;;;;;;5.50;1.45;;;23.60;99.90;;;;;;4995455;28;20023;-63
2021/12/14 07:38:23;;;;;;;9.68;1.02;;;24.00;99.90;;;;;;4993950;28;20364;-64
2021/12/14 07:41:09;;;;;;;4.05;1.13;;;24.70;99.90;;;;;;4995302;28;20046;-63
2021/12/14 07:44:03;;;;;;;4.35;1.25;;;25.20;99.90;;;;;;4995521;28;20050;-63
2021/12/14 07:46:59;;;;;;;6.15;1.50;;;25.40;99.90;;;;;;4996818;28;20093;-63
2021/12/14 07:49:33;;;;;;;;;;;24.50;99.90;;;;;;4993533;28;20795;-64
2021/12/14 07:52:03;;;;;;;5.35;1.05;;;23.60;99.90;;;;;;4987538;28;20390;-64
2021/12/14 07:54:39;;;;;;;6.18;2.15;;;23.00;99.90;;;;;;4993761;28;20057;-63
2021/12/14 07:57:09;;;;;;;4.30;1.05;;;22.70;99.90;;;;;;4994286;28;20058;-64
2021/12/14 07:59:41;;;;;;;6.90;1.77;;;22.40;99.90;;;;;;4992870;28;20033;-63
2021/12/14 08:02:15;;;;;;;4.68;1.10;;;22.20;99.90;;;;;;4992971;28;20460;-63
2021/12/14 08:04:47;;;;;;;4.85;1.27;;;22.10;99.90;;;;;;4994769;28;20030;-63
2021/12/14 08:07:32;;;;;;;11.77;1.58;;;21.90;99.90;;;;;;4994896;28;20026;-63
2021/12/14 08:10:15;;;;;;;8.77;1.33;;;21.60;99.90;;;;;;4993791;28;20034;-62
2021/12/14 08:12:48;;;;;;;6.43;1.38;;;21.60;99.90;;;;;;4992070;28;20026;-63
2021/12/14 08:15:39;;;;;;;4.82;1.23;;;21.50;99.90;;;;;;4985447;28;20046;-63
2021/12/14 08:18:20;;;;;;;6.22;1.30;;;21.40;99.90;;;;;;4975113;28;20047;-63
2021/12/14 08:20:53;;;;;;;9.65;2.30;;;21.30;99.90;;;;;;4974896;28;20041;-63
2021/12/14 08:23:46;;;;;;;13.32;2.40;;;21.30;99.90;;;;;;4974916;28;20102;-62
2021/12/14 08:26:35;;;;;;;7.50;1.58;;;21.30;99.90;;;;;;4966312;28;20039;-63
2021/12/14 08:29:05;;;;;;;4.68;1.33;;;21.20;99.90;;;;;;4974605;28;20019;-62
2021/12/14 08:31:39;;;;;;;5.47;1.63;;;21.20;99.90;;;;;;4974857;28;20034;-63
2021/12/14 08:34:17;;;;;;;4.22;1.02;;;21.10;99.90;;;;;;4974796;28;20424;-63
2021/12/14 08:36:51;;;;;;;9.95;1.80;;;20.90;99.90;;;;;;4974493;28;20041;-63
2021/12/14 08:39:26;;;;;;;6.07;1.00;;;20.80;99.90;;;;;;4974225;28;20121;-62
2021/12/14 08:42:36;;;;;;;5.30;1.90;;;20.60;99.90;;;;;;4986130;28;20387;-62
2021/12/14 08:45:25;;;;;;;4.63;1.20;;;20.60;99.90;;;;;;4985488;28;20037;-63
2021/12/14 08:48:03;;;;;;;6.88;1.52;;;20.50;99.90;;;;;;4993536;28;20034;-63
2021/12/14 08:50:36;;;;;;;7.95;2.63;;;20.40;99.90;;;;;;4991842;28;20014;-63
2021/12/14 08:53:08;;;;;;;5.72;1.58;;;20.40;99.90;;;;;;4990854;28;20031;-63
2021/12/14 08:55:38;;;;;;;10.15;1.85;;;20.30;99.90;;;;;;4990768;28;20514;-64
2021/12/14 08:58:07;;;;;;;6.75;1.75;;;20.20;99.90;;;;;;4990934;28;20046;-63
2021/12/14 09:00:40;;;;;;;13.10;2.50;;;20.10;99.90;;;;;;4990824;28;20045;-62
2021/12/14 09:03:13;;;;;;;7.03;1.65;;;20.00;99.90;;;;;;4990339;28;20050;-63
2021/12/14 09:05:47;;;;;;;8.77;2.42;;;20.00;99.90;;;;;;4990972;28;20031;-63
2021/12/14 09:08:17;;;;;;;6.70;2.00;;;20.00;99.90;;;;;;4992612;28;20312;-63
2021/12/14 09:10:49;;;;;;;11.57;2.03;;;19.90;99.90;;;;;;4992335;28;20256;-64
2021/12/14 09:13:17;;;;;;;7.30;1.80;;;19.80;99.90;;;;;;4992846;28;20022;-63
2021/12/14 09:15:56;;;;;;;6.10;1.35;;;19.70;99.90;;;;;;4992880;28;20173;-63
2021/12/14 09:18:26;;;;;;;8.77;2.47;;;19.70;99.90;;;;;;4992823;28;20030;-63
2021/12/14 09:21:04;;;;;;;9.90;1.83;;;19.60;99.90;;;;;;4992765;28;20121;-63
2021/12/14 09:23:36;;;;;;;7.82;2.22;;;19.60;99.90;;;;;;4992693;28;20062;-62
2021/12/14 09:26:10;;;;;;;5.57;1.83;;;19.50;99.90;;;;;;4992807;28;20501;-64
2021/12/14 09:28:38;;;;;;;3.75;1.20;;;19.50;99.90;;;;;;4992763;28;20018;-62
2021/12/14 09:31:09;;;;;;;5.18;1.52;;;19.40;99.90;;;;;;4992697;28;20034;-62
2021/12/14 09:33:40;;;;;;;6.78;1.63;;;19.30;99.90;;;;;;4992759;28;20459;-62
2021/12/14 09:36:12;;;;;;;4.60;1.52;;;19.20;99.90;;;;;;4992702;28;20037;-64
2021/12/14 09:38:51;;;;;;;12.73;2.00;;;19.10;99.90;;;;;;4994758;28;20026;-62
2021/12/14 09:41:23;;;;;;;5.95;1.70;;;19.10;99.90;;;;;;4996422;28;20494;-64
2021/12/14 09:43:52;;;;;;;6.18;1.50;;;19.10;99.90;;;;;;4996111;28;20032;-63
2021/12/14 09:46:21;;;;;;;3.65;1.75;;;19.00;99.90;;;;;;4996492;28;20097;-64
2021/12/14 09:48:58;;;;;;;3.47;1.25;;;19.00;99.90;;;;;;4996248;28;20105;-62
2021/12/14 09:51:37;;;;;;;6.03;1.67;;;18.90;99.90;;;;;;4996213;28;20057;-63
2021/12/14 09:54:09;;;;;;;6.53;1.35;;;18.80;99.90;;;;;;4996170;28;20034;-63
2021/12/14 09:56:45;;;;;;;7.72;1.20;;;18.70;99.90;;;;;;4996029;28;20360;-64
2021/12/14 09:59:13;;;;;;;5.10;1.30;;;18.70;99.90;;;;;;4996099;28;20036;-63
2021/12/14 10:01:46;;;;;;;8.98;1.75;;;18.60;99.90;;;;;;4995872;28;20450;-62
2021/12/14 10:04:23;;;;;;;6.97;2.10;;;18.60;99.90;;;;;;4996150;28;20038;-64
2021/12/14 10:06:52;;;;;;;3.92;1.10;;;18.50;99.90;;;;;;4995897;28;20080;-62
2021/12/14 10:09:26;;;;;;;9.68;1.63;;;18.50;99.90;;;;;;4995941;28;20386;-64
2021/12/14 10:12:15;;;;;;;8.48;1.63;;;18.40;99.90;;;;;;4996015;28;20034;-63
2021/12/14 10:14:44;;;;;;;2.95;1.20;;;18.30;99.90;;;;;;4995487;28;20033;-63
2021/12/14 10:17:14;;;;;;;9.00;2.40;;;18.30;99.90;;;;;;4995633;28;20030;-63
2021/12/14 10:19:44;;;;;;;7.68;1.40;;;18.20;99.90;;;;;;4992796;28;20038;-63
2021/12/14 10:22:26;;;;;;;7.63;1.20;;;18.20;99.90;;;;;;4987317;28;20026;-63
2021/12/14 10:24:56;;;;;;;5.90;1.38;;;18.20;99.90;;;;;;4995782;28;20019;-62
2021/12/14 10:27:27;;;;;;;5.88;2.08;;;18.10;99.90;;;;;;4995437;28;20051;-62
2021/12/14 10:29:56;;;;;;;5.28;1.42;;;18.10;99.90;;;;;;4995688;28;20383;-62
2021/12/14 10:32:29;;;;;;;11.82;2.40;;;18.00;99.90;;;;;;4995742;28;20041;-61
2021/12/14 10:35:03;;;;;;;7.20;1.20;;;18.00;99.90;;;;;;4995513;28;20018;-62
2021/12/14 10:37:56;;;;;;;8.63;1.88;;;17.90;99.90;;;;;;4995419;28;20088;-62
2021/12/14 10:43:20;;;;;;;7.60;1.77;;;17.90;99.90;;;;;;4995544;28;20037;-63
2021/12/14 10:45:58;;;;;;;6.03;1.52;;;17.80;99.90;;;;;;4995217;28;20113;-62
2021/12/14 10:48:32;;;;;;;10.65;2.13;;;17.80;99.90;;;;;;4992167;28;20032;-63
2021/12/14 10:51:05;;;;;;;11.88;1.60;;;17.80;99.90;;;;;;4985212;28;20114;-62
2021/12/14 10:53:34;;;;;;;6.65;1.63;;;17.80;99.90;;;;;;4975654;28;20033;-61
2021/12/14 10:56:09;;;;;;;4.82;1.48;;;17.70;99.90;;;;;;4979689;28;20026;-62
2021/12/14 10:58:39;;;;;;;3.20;1.77;;;17.70;99.90;;;;;;4994699;28;20391;-63
2021/12/14 11:01:12;;;;;;;10.18;2.15;;;17.60;99.90;;;;;;4993469;28;20042;-64
2021/12/14 11:03:45;;;;;;;7.63;2.13;;;17.60;99.90;;;;;;4994505;28;20062;-62
2021/12/14 11:06:17;;;;;;;11.88;1.80;;;17.50;99.90;;;;;;4994352;28;20109;-61
2021/12/14 11:11:22;;;;;;;9.27;2.28;;;17.40;99.90;;;;;;4992365;28;20022;-64
2021/12/14 11:13:55;;;;;;;8.45;1.67;;;17.50;99.90;;;;;;4991809;28;20014;-62
2021/12/14 11:19:19;;;;;;;9.05;1.75;;;17.50;99.90;;;;;;5000986;28;20019;-64
2021/12/14 11:21:47;;;;;;;7.15;1.73;;;17.40;99.90;;;;;;4993707;28;20112;-63
2021/12/14 11:24:14;;;;;;;9.80;1.90;;;17.50;99.90;;;;;;4992616;28;20030;-63
2021/12/14 11:26:44;;;;;;;7.22;1.83;;;17.40;99.90;;;;;;4991934;28;20396;-63
2021/12/14 11:29:16;;;;;;;6.97;1.00;;;17.40;99.90;;;;;;4989144;28;20014;-63
2021/12/14 11:31:52;;;;;;;9.18;1.50;;;17.30;99.90;;;;;;4992469;28;20440;-62
2021/12/14 11:34:29;;;;;;;;;;;17.30;99.90;;;;;;4990485;28;20113;-62
2021/12/14 11:37:03;;;;;;;7.88;1.33;;;17.30;99.90;;;;;;4989988;28;20371;-61
2021/12/14 11:39:46;;;;;;;10.77;2.45;;;17.30;99.90;;;;;;4992361;28;20030;-63
2021/12/14 11:42:26;;;;;;;10.10;1.67;;;17.20;99.90;;;;;;4991385;28;20034;-63
2021/12/14 11:45:08;;;;;;;5.13;1.30;;;17.20;99.90;;;;;;4993072;28;20046;-63
2021/12/14 11:50:07;;;;;;;11.80;2.15;;;17.20;99.90;;;;;;4990482;28;20459;-63
2021/12/14 11:52:57;;;;;;;7.43;1.60;;;17.10;99.90;;;;;;4993937;28;20022;-62
2021/12/14 11:55:44;;;;;;;6.72;2.03;;;17.10;99.90;;;;;;4993827;28;20479;-63
2021/12/14 11:58:24;;;;;;;8.88;1.95;;;17.10;99.90;;;;;;4993674;28;20032;-63
2021/12/14 12:01:06;;;;;;;8.50;1.50;;;17.00;99.90;;;;;;4993460;28;20042;-63
2021/12/14 12:03:40;;;;;;;6.00;1.48;;;16.90;99.90;;;;;;4993587;28;20039;-63
2021/12/14 12:06:45;;;;;;;6.30;1.27;;;16.90;99.90;;;;;;4993693;28;20057;-63
2021/12/14 12:12:04;;;;;;;5.50;1.40;;;16.90;99.90;;;;;;4994288;28;20026;-63
2021/12/14 12:14:38;;;;;;;8.90;1.58;;;16.90;99.90;;;;;;4994468;28;20054;-62
2021/12/14 12:17:40;;;;;;;4.38;1.40;;;16.90;99.90;;;;;;4993961;28;20046;-62
2021/12/14 12:20:08;;;;;;;6.53;2.05;;;16.90;99.90;;;;;;4992664;28;20034;-63
2021/12/14 12:22:39;;;;;;;5.82;1.98;;;16.80;99.90;;;;;;4991382;28;20027;-62
2021/12/14 12:25:11;;;;;;;8.32;1.52;;;16.80;99.90;;;;;;4993989;28;20033;-62
2021/12/14 12:27:45;;;;;;;6.07;2.40;;;16.80;99.90;;;;;;4991806;28;20411;-62
2021/12/14 12:30:27;;;;;;;8.80;1.48;;;16.80;99.90;;;;;;4993727;28;20506;-63
2021/12/14 12:32:55;;;;;;;6.63;1.60;;;16.80;99.90;;;;;;4994666;28;20057;-61
2021/12/14 12:35:37;;;;;;;8.82;1.67;;;16.70;99.90;;;;;;4994324;28;20109;-61
2021/12/14 12:38:37;;;;;;;5.65;1.85;;;16.70;99.90;;;;;;4993031;28;20047;-61
2021/12/14 12:41:25;;;;;;;6.82;1.63;;;16.70;99.90;;;;;;4993020;28;20042;-62
2021/12/14 12:44:20;;;;;;;5.00;1.40;;;16.80;99.90;;;;;;4994253;28;20383;-61
2021/12/14 12:47:07;;;;;;;8.65;2.28;;;16.80;99.90;;;;;;4994327;28;20038;-61
2021/12/14 12:49:39;;;;;;;3.92;1.85;;;16.70;99.90;;;;;;4994280;28;20057;-61
2021/12/14 12:52:18;;;;;;;10.60;1.92;;;16.80;99.90;;;;;;4994278;28;20531;-61
2021/12/14 12:55:17;;;;;;;4.57;1.65;;;16.70;99.90;;;;;;4994259;28;20487;-62
2021/12/14 12:57:58;;;;;;;4.75;1.50;;;16.70;99.90;;;;;;4994102;28;20026;-62
2021/12/14 13:00:29;;;;;;;7.43;1.60;;;16.70;99.90;;;;;;4994357;28;20031;-61
2021/12/14 13:03:14;;;;;;;7.50;1.67;;;16.70;99.90;;;;;;4993833;28;20058;-62
2021/12/14 13:05:56;;;;;;;8.40;1.63;;;16.70;99.90;;;;;;4994007;28;20035;-62
2021/12/14 13:08:38;;;;;;;8.10;1.67;;;16.70;99.90;;;;;;4994305;28;20109;-64
2021/12/14 13:11:13;;;;;;;3.88;1.67;;;16.70;99.90;;;;;;4994166;28;20069;-62
2021/12/14 13:13:51;;;;;;;8.27;1.60;;;16.70;99.90;;;;;;4997038;28;20402;-62
2021/12/14 13:16:22;;;;;;;7.93;1.70;;;16.70;99.90;;;;;;4996876;28;20485;-63
2021/12/14 13:18:54;;;;;;;8.18;1.50;;;16.60;99.90;;;;;;4997883;28;20022;-62
2021/12/14 13:21:45;;;;;;;6.65;2.28;;;16.60;99.90;;;;;;4997776;28;20030;-62
2021/12/14 13:24:29;;;;;;;10.60;2.20;;;16.60;99.90;;;;;;4997705;28;20033;-62
2021/12/14 13:27:04;;;;;;;12.27;1.80;;;16.50;99.90;;;;;;4997753;28;20069;-63
2021/12/14 13:29:40;;;;;;;8.57;2.33;;;16.50;99.90;;;;;;4997854;28;20407;-62
2021/12/14 13:32:10;;;;;;;9.80;1.27;;;16.50;99.90;;;;;;4997676;28;20034;-63
2021/12/14 13:35:10;;;;;;;4.43;1.67;;;16.50;99.90;;;;;;4997864;28;20409;-62
2021/12/14 13:37:45;;;;;;;8.18;1.70;;;16.40;99.90;;;;;;4997616;28;20028;-62
2021/12/14 13:40:18;;;;;;;4.63;1.33;;;16.40;99.90;;;;;;4997563;28;20081;-63
2021/12/14 13:43:00;;;;;;;5.40;1.27;;;16.40;99.90;;;;;;4997505;28;20278;-63
2021/12/14 13:45:34;;;;;;;7.93;1.48;;;16.40;99.90;;;;;;4997600;28;20026;-63
2021/12/14 13:48:05;;;;;;;12.35;2.20;;;16.40;99.90;;;;;;4997538;28;20037;-63
2021/12/14 13:50:48;;;;;;;7.32;1.63;;;16.40;99.90;;;;;;4997482;28;20031;-62
2021/12/14 13:53:16;;;;;;;8.65;2.33;;;16.40;99.90;;;;;;4997459;28;20034;-63
2021/12/14 13:55:47;;;;;;;9.20;2.25;;;16.40;99.90;;;;;;4997509;28;20049;-63
2021/12/14 13:58:29;;;;;;;11.15;2.00;;;16.40;99.90;;;;;;4997251;28;20026;-63
2021/12/14 14:01:11;;;;;;;4.28;1.67;;;16.50;99.90;;;;;;4997048;28;20550;-63
2021/12/14 14:03:42;;;;;;;10.52;1.98;;;16.40;99.90;;;;;;4997157;28;20039;-63
2021/12/14 14:06:12;;;;;;;5.47;1.65;;;16.40;99.90;;;;;;4996994;28;20052;-62
2021/12/14 14:08:47;;;;;;;8.48;2.20;;;16.30;99.90;;;;;;4997109;28;20076;-62